sensor_id;sensor_type;location;lat;lon;timestamp;temperature;humidity
871;DHT22;422;51.280;7.236;2022-10-12T00:00:44;4.40;1.00
871;DHT22;422;51.280;7.236;2022-10-12T00:03:11;4.40;1.00
871;DHT22;422;51.280;7.236;2022-10-12T00:05:39;4.40;1.00
871;DHT22;422;51.280;7.236;2022-10-12T00:08:06;4.30;1.00
871;DHT22;422;51.280;7.236;2022-10-12T00:10:33;4.40;1.00
871;DHT22;422;51.280;7.236;2022-10-12T00:13:05;4.20;1.00
871;DHT22;422;51.280;7.236;2022-10-12T00:15:36;4.20;96.70
871;DHT22;422;51.280;7.236;2022-10-12T00:18:05;4.20;99.90
871;DHT22;422;51.280;7.236;2022-10-12T00:20:33;4.20;1.00
871;DHT22;422;51.280;7.236;2022-10-12T00:23:00;4.20;1.00
871;DHT22;422;51.280;7.236;2022-10-12T00:25:27;4.20;99.90
871;DHT22;422;51.280;7.236;2022-10-12T00:27:55;4.20;99.90
871;DHT22;422;51.280;7.236;2022-10-12T00:30:22;4.20;99.90
871;DHT22;422;51.280;7.236;2022-10-12T00:32:49;4.20;99.90
871;DHT22;422;51.280;7.236;2022-10-12T00:35:18;4.20;99.90
871;DHT22;422;51.280;7.236;2022-10-12T00:37:45;4.20;1.00
871;DHT22;422;51.280;7.236;2022-10-12T00:40:13;4.20;99.90
871;DHT22;422;51.280;7.236;2022-10-12T00:42:40;4.10;50.40
871;DHT22;422;51.280;7.236;2022-10-12T00:45:08;4.10;1.00
871;DHT22;422;51.280;7.236;2022-10-12T00:47:47;4.10;1.00
871;DHT22;422;51.280;7.236;2022-10-12T00:50:20;4.10;1.00
871;DHT22;422;51.280;7.236;2022-10-12T00:52:55;4.00;99.90
871;DHT22;422;51.280;7.236;2022-10-12T00:55:26;4.00;99.90
871;DHT22;422;51.280;7.236;2022-10-12T00:57:55;3.90;99.90
871;DHT22;422;51.280;7.236;2022-10-12T01:00:23;3.90;1.00
871;DHT22;422;51.280;7.236;2022-10-12T01:02:53;3.90;99.90
871;DHT22;422;51.280;7.236;2022-10-12T01:05:23;3.90;1.00
871;DHT22;422;51.280;7.236;2022-10-12T01:07:52;3.90;1.00
871;DHT22;422;51.280;7.236;2022-10-12T01:10:19;3.90;99.90
871;DHT22;422;51.280;7.236;2022-10-12T01:12:51;3.90;19.10
871;DHT22;422;51.280;7.236;2022-10-12T01:15:21;3.90;1.00
871;DHT22;422;51.280;7.236;2022-10-12T01:17:57;3.90;1.00
871;DHT22;422;51.280;7.236;2022-10-12T01:20:58;3.80;99.90
871;DHT22;422;51.280;7.236;2022-10-12T01:33:07;3.70;26.40
871;DHT22;422;51.280;7.236;2022-10-12T01:35:41;3.70;99.90
871;DHT22;422;51.280;7.236;2022-10-12T01:38:23;3.70;99.90
871;DHT22;422;51.280;7.236;2022-10-12T01:40:56;3.70;99.90
871;DHT22;422;51.280;7.236;2022-10-12T01:43:32;3.70;1.00
871;DHT22;422;51.280;7.236;2022-10-12T01:46:43;3.60;1.00
871;DHT22;422;51.280;7.236;2022-10-12T01:49:15;3.70;99.90
871;DHT22;422;51.280;7.236;2022-10-12T01:51:57;3.70;99.90
871;DHT22;422;51.280;7.236;2022-10-12T01:54:32;3.60;67.20
871;DHT22;422;51.280;7.236;2022-10-12T01:57:04;3.70;1.00
871;DHT22;422;51.280;7.236;2022-10-12T01:59:41;3.60;1.00
871;DHT22;422;51.280;7.236;2022-10-12T02:02:17;3.60;12.40
871;DHT22;422;51.280;7.236;2022-10-12T02:04:51;3.50;99.90
871;DHT22;422;51.280;7.236;2022-10-12T02:07:31;3.50;99.90
871;DHT22;422;51.280;7.236;2022-10-12T02:10:02;3.50;4.30
871;DHT22;422;51.280;7.236;2022-10-12T02:12:31;3.50;58.70
871;DHT22;422;51.280;7.236;2022-10-12T02:15:02;3.50;99.90
871;DHT22;422;51.280;7.236;2022-10-12T02:17:34;3.40;99.90
871;DHT22;422;51.280;7.236;2022-10-12T02:20:05;3.50;1.00
871;DHT22;422;51.280;7.236;2022-10-12T02:22:39;3.40;1.00
871;DHT22;422;51.280;7.236;2022-10-12T02:25:09;3.30;92.90
871;DHT22;422;51.280;7.236;2022-10-12T02:27:42;3.30;1.00
871;DHT22;422;51.280;7.236;2022-10-12T02:30:11;3.30;99.90
871;DHT22;422;51.280;7.236;2022-10-12T02:32:44;3.30;99.90
871;DHT22;422;51.280;7.236;2022-10-12T02:35:24;3.20;99.90
871;DHT22;422;51.280;7.236;2022-10-12T02:37:55;3.10;1.00
871;DHT22;422;51.280;7.236;2022-10-12T02:40:32;3.20;1.00
871;DHT22;422;51.280;7.236;2022-10-12T02:43:07;3.20;99.90
871;DHT22;422;51.280;7.236;2022-10-12T02:45:35;3.20;38.90
871;DHT22;422;51.280;7.236;2022-10-12T02:48:05;3.20;99.90
871;DHT22;422;51.280;7.236;2022-10-12T02:50:35;3.20;1.00
871;DHT22;422;51.280;7.236;2022-10-12T02:53:03;3.30;1.00
871;DHT22;422;51.280;7.236;2022-10-12T02:55:31;3.30;75.70
871;DHT22;422;51.280;7.236;2022-10-12T02:58:00;3.30;99.90
871;DHT22;422;51.280;7.236;2022-10-12T03:00:28;3.30;46.50
871;DHT22;422;51.280;7.236;2022-10-12T03:02:57;3.30;99.90
871;DHT22;422;51.280;7.236;2022-10-12T03:05:26;3.20;99.90
871;DHT22;422;51.280;7.236;2022-10-12T03:07:55;3.10;99.90
871;DHT22;422;51.280;7.236;2022-10-12T03:10:22;3.10;99.90
871;DHT22;422;51.280;7.236;2022-10-12T03:12:49;3.10;99.90
871;DHT22;422;51.280;7.236;2022-10-12T03:15:16;3.10;49.90
871;DHT22;422;51.280;7.236;2022-10-12T03:17:43;3.10;1.00
871;DHT22;422;51.280;7.236;2022-10-12T03:20:11;3.10;1.00
871;DHT22;422;51.280;7.236;2022-10-12T03:22:38;3.10;1.00
871;DHT22;422;51.280;7.236;2022-10-12T03:25:08;3.10;99.90
871;DHT22;422;51.280;7.236;2022-10-12T03:27:35;3.10;99.90
871;DHT22;422;51.280;7.236;2022-10-12T03:30:02;3.10;99.90
871;DHT22;422;51.280;7.236;2022-10-12T03:32:29;3.10;1.00
871;DHT22;422;51.280;7.236;2022-10-12T03:34:57;3.10;99.90
871;DHT22;422;51.280;7.236;2022-10-12T03:37:24;3.10;1.00
871;DHT22;422;51.280;7.236;2022-10-12T03:39:53;3.10;99.90
871;DHT22;422;51.280;7.236;2022-10-12T03:42:22;3.10;99.90
871;DHT22;422;51.280;7.236;2022-10-12T03:44:49;3.10;1.00
871;DHT22;422;51.280;7.236;2022-10-12T03:47:16;3.10;99.90
871;DHT22;422;51.280;7.236;2022-10-12T03:49:44;3.10;99.90
871;DHT22;422;51.280;7.236;2022-10-12T03:52:11;3.10;99.90
871;DHT22;422;51.280;7.236;2022-10-12T03:54:41;3.00;99.90
871;DHT22;422;51.280;7.236;2022-10-12T03:57:08;3.00;99.90
871;DHT22;422;51.280;7.236;2022-10-12T03:59:37;3.00;99.90
871;DHT22;422;51.280;7.236;2022-10-12T04:02:04;3.00;99.90
871;DHT22;422;51.280;7.236;2022-10-12T04:04:31;2.90;99.90
871;DHT22;422;51.280;7.236;2022-10-12T04:06:58;2.90;1.00
871;DHT22;422;51.280;7.236;2022-10-12T04:09:26;2.90;99.90
871;DHT22;422;51.280;7.236;2022-10-12T04:11:53;2.80;1.00
871;DHT22;422;51.280;7.236;2022-10-12T04:14:20;2.80;1.00
871;DHT22;422;51.280;7.236;2022-10-12T04:16:49;2.80;99.90
871;DHT22;422;51.280;7.236;2022-10-12T04:19:19;2.80;99.90
871;DHT22;422;51.280;7.236;2022-10-12T04:21:46;2.90;99.90
871;DHT22;422;51.280;7.236;2022-10-12T04:24:15;2.80;17.40
871;DHT22;422;51.280;7.236;2022-10-12T04:26:42;2.90;99.90
871;DHT22;422;51.280;7.236;2022-10-12T04:29:11;2.90;1.00
871;DHT22;422;51.280;7.236;2022-10-12T04:31:39;2.90;51.80
871;DHT22;422;51.280;7.236;2022-10-12T04:34:08;2.90;1.00
871;DHT22;422;51.280;7.236;2022-10-12T04:36:35;2.90;99.90
871;DHT22;422;51.280;7.236;2022-10-12T04:39:02;2.90;99.90
871;DHT22;422;51.280;7.236;2022-10-12T04:41:30;2.90;1.00
871;DHT22;422;51.280;7.236;2022-10-12T04:43:57;2.90;1.00
871;DHT22;422;51.280;7.236;2022-10-12T04:46:25;2.90;99.90
871;DHT22;422;51.280;7.236;2022-10-12T04:48:52;2.90;1.00
871;DHT22;422;51.280;7.236;2022-10-12T04:51:21;2.90;1.00
871;DHT22;422;51.280;7.236;2022-10-12T04:53:48;2.90;99.90
871;DHT22;422;51.280;7.236;2022-10-12T04:56:15;3.00;34.60
871;DHT22;422;51.280;7.236;2022-10-12T04:58:44;3.00;99.90
871;DHT22;422;51.280;7.236;2022-10-12T05:01:11;3.00;1.00
871;DHT22;422;51.280;7.236;2022-10-12T05:03:44;3.00;1.00
871;DHT22;422;51.280;7.236;2022-10-12T05:06:13;3.00;1.00
871;DHT22;422;51.280;7.236;2022-10-12T05:08:43;3.00;1.30
871;DHT22;422;51.280;7.236;2022-10-12T05:11:11;3.10;99.90
871;DHT22;422;51.280;7.236;2022-10-12T05:13:38;3.10;99.90
871;DHT22;422;51.280;7.236;2022-10-12T05:16:06;3.10;99.90
871;DHT22;422;51.280;7.236;2022-10-12T05:18:33;3.20;99.90
871;DHT22;422;51.280;7.236;2022-10-12T05:21:00;3.20;99.90
871;DHT22;422;51.280;7.236;2022-10-12T05:23:27;3.30;72.20
871;DHT22;422;51.280;7.236;2022-10-12T05:25:56;3.20;1.00
871;DHT22;422;51.280;7.236;2022-10-12T05:28:23;3.20;1.00
871;DHT22;422;51.280;7.236;2022-10-12T05:30:50;3.20;99.90
871;DHT22;422;51.280;7.236;2022-10-12T05:33:20;3.20;99.90
871;DHT22;422;51.280;7.236;2022-10-12T05:35:48;3.20;99.90
871;DHT22;422;51.280;7.236;2022-10-12T05:38:15;3.30;99.90
871;DHT22;422;51.280;7.236;2022-10-12T05:40:43;3.20;72.90
871;DHT22;422;51.280;7.236;2022-10-12T05:43:12;3.20;1.00
871;DHT22;422;51.280;7.236;2022-10-12T05:45:41;3.20;1.00
871;DHT22;422;51.280;7.236;2022-10-12T05:48:08;3.30;1.00
871;DHT22;422;51.280;7.236;2022-10-12T05:50:36;3.30;1.00
871;DHT22;422;51.280;7.236;2022-10-12T05:53:03;3.40;1.00
871;DHT22;422;51.280;7.236;2022-10-12T05:55:33;3.30;1.00
871;DHT22;422;51.280;7.236;2022-10-12T05:58:03;3.30;42.60
871;DHT22;422;51.280;7.236;2022-10-12T06:00:33;3.30;1.00
871;DHT22;422;51.280;7.236;2022-10-12T06:03:00;3.30;99.90
871;DHT22;422;51.280;7.236;2022-10-12T06:05:28;3.30;99.90
871;DHT22;422;51.280;7.236;2022-10-12T06:07:55;3.30;1.00
871;DHT22;422;51.280;7.236;2022-10-12T06:10:22;3.40;1.00
871;DHT22;422;51.280;7.236;2022-10-12T06:12:49;3.40;99.90
871;DHT22;422;51.280;7.236;2022-10-12T06:15:17;3.40;1.00
871;DHT22;422;51.280;7.236;2022-10-12T06:17:47;3.40;1.00
871;DHT22;422;51.280;7.236;2022-10-12T06:20:15;3.30;99.90
871;DHT22;422;51.280;7.236;2022-10-12T06:22:42;3.30;99.90
871;DHT22;422;51.280;7.236;2022-10-12T06:25:09;3.40;99.90
871;DHT22;422;51.280;7.236;2022-10-12T06:27:39;3.40;99.90
871;DHT22;422;51.280;7.236;2022-10-12T06:30:06;3.40;1.00
871;DHT22;422;51.280;7.236;2022-10-12T06:32:34;3.40;99.90
871;DHT22;422;51.280;7.236;2022-10-12T06:35:03;3.40;31.20
871;DHT22;422;51.280;7.236;2022-10-12T06:37:31;3.50;1.00
871;DHT22;422;51.280;7.236;2022-10-12T06:39:58;3.50;99.90
871;DHT22;422;51.280;7.236;2022-10-12T06:42:27;3.50;99.90
871;DHT22;422;51.280;7.236;2022-10-12T06:44:57;3.50;99.90
871;DHT22;422;51.280;7.236;2022-10-12T06:47:24;3.60;1.00
871;DHT22;422;51.280;7.236;2022-10-12T06:49:51;3.60;99.90
871;DHT22;422;51.280;7.236;2022-10-12T06:52:20;3.70;1.00
871;DHT22;422;51.280;7.236;2022-10-12T06:54:47;3.80;1.00
871;DHT22;422;51.280;7.236;2022-10-12T06:57:17;4.00;96.80
871;DHT22;422;51.280;7.236;2022-10-12T06:59:44;4.10;99.90
871;DHT22;422;51.280;7.236;2022-10-12T07:02:11;4.20;99.90
871;DHT22;422;51.280;7.236;2022-10-12T07:04:38;4.40;1.00
871;DHT22;422;51.280;7.236;2022-10-12T07:07:05;4.60;99.90
871;DHT22;422;51.280;7.236;2022-10-12T07:09:34;4.90;1.00
871;DHT22;422;51.280;7.236;2022-10-12T07:12:02;5.20;1.30
871;DHT22;422;51.280;7.236;2022-10-12T07:14:30;5.40;23.10
871;DHT22;422;51.280;7.236;2022-10-12T07:16:57;5.80;10.80
871;DHT22;422;51.280;7.236;2022-10-12T07:19:26;6.10;63.80
871;DHT22;422;51.280;7.236;2022-10-12T07:21:54;6.30;99.90
871;DHT22;422;51.280;7.236;2022-10-12T07:24:21;6.60;99.90
871;DHT22;422;51.280;7.236;2022-10-12T07:26:51;6.90;1.00
871;DHT22;422;51.280;7.236;2022-10-12T07:29:18;7.10;99.90
871;DHT22;422;51.280;7.236;2022-10-12T07:31:45;7.30;99.90
871;DHT22;422;51.280;7.236;2022-10-12T07:34:15;7.60;1.00
871;DHT22;422;51.280;7.236;2022-10-12T07:36:45;7.70;99.90
871;DHT22;422;51.280;7.236;2022-10-12T07:39:15;7.80;99.90
871;DHT22;422;51.280;7.236;2022-10-12T07:41:42;8.10;99.90
871;DHT22;422;51.280;7.236;2022-10-12T07:44:15;8.10;1.00
871;DHT22;422;51.280;7.236;2022-10-12T07:46:44;8.70;1.00
871;DHT22;422;51.280;7.236;2022-10-12T07:49:14;8.90;1.00
871;DHT22;422;51.280;7.236;2022-10-12T07:51:42;9.10;1.00
871;DHT22;422;51.280;7.236;2022-10-12T07:54:10;9.40;1.00
871;DHT22;422;51.280;7.236;2022-10-12T07:56:38;9.80;1.00
871;DHT22;422;51.280;7.236;2022-10-12T07:59:05;10.30;1.00
871;DHT22;422;51.280;7.236;2022-10-12T08:01:36;10.40;1.00
871;DHT22;422;51.280;7.236;2022-10-12T08:04:03;10.60;1.00
871;DHT22;422;51.280;7.236;2022-10-12T08:06:32;11.00;1.00
871;DHT22;422;51.280;7.236;2022-10-12T08:09:03;11.20;1.00
871;DHT22;422;51.280;7.236;2022-10-12T08:11:31;11.20;1.00
871;DHT22;422;51.280;7.236;2022-10-12T08:14:01;11.40;1.00
871;DHT22;422;51.280;7.236;2022-10-12T08:16:28;11.20;1.00
871;DHT22;422;51.280;7.236;2022-10-12T08:18:58;11.30;1.00
871;DHT22;422;51.280;7.236;2022-10-12T08:21:26;11.80;1.00
871;DHT22;422;51.280;7.236;2022-10-12T08:23:53;11.80;1.00
871;DHT22;422;51.280;7.236;2022-10-12T08:26:22;11.90;99.90
871;DHT22;422;51.280;7.236;2022-10-12T08:28:49;12.40;99.90
871;DHT22;422;51.280;7.236;2022-10-12T08:31:23;12.70;99.90
871;DHT22;422;51.280;7.236;2022-10-12T08:33:51;13.00;99.90
871;DHT22;422;51.280;7.236;2022-10-12T08:36:22;13.50;99.90
871;DHT22;422;51.280;7.236;2022-10-12T08:38:50;13.80;99.90
871;DHT22;422;51.280;7.236;2022-10-12T08:41:28;14.10;99.90
871;DHT22;422;51.280;7.236;2022-10-12T08:46:58;15.00;99.90
871;DHT22;422;51.280;7.236;2022-10-12T08:49:30;15.20;99.90
871;DHT22;422;51.280;7.236;2022-10-12T08:52:03;15.20;99.90
871;DHT22;422;51.280;7.236;2022-10-12T08:54:36;15.20;99.90
871;DHT22;422;51.280;7.236;2022-10-12T08:57:15;15.10;99.90
871;DHT22;422;51.280;7.236;2022-10-12T08:59:43;15.10;99.90
871;DHT22;422;51.280;7.236;2022-10-12T09:02:33;15.20;99.90
871;DHT22;422;51.280;7.236;2022-10-12T09:05:06;15.50;99.90
871;DHT22;422;51.280;7.236;2022-10-12T09:07:39;15.90;99.90
871;DHT22;422;51.280;7.236;2022-10-12T09:10:25;16.00;99.90
871;DHT22;422;51.280;7.236;2022-10-12T09:13:03;16.40;99.90
871;DHT22;422;51.280;7.236;2022-10-12T09:15:36;16.90;99.90
871;DHT22;422;51.280;7.236;2022-10-12T09:18:11;17.10;99.90
871;DHT22;422;51.280;7.236;2022-10-12T09:20:45;17.30;99.90
871;DHT22;422;51.280;7.236;2022-10-12T09:23:23;17.20;99.90
871;DHT22;422;51.280;7.236;2022-10-12T09:25:55;17.40;99.90
871;DHT22;422;51.280;7.236;2022-10-12T09:28:28;17.60;99.90
871;DHT22;422;51.280;7.236;2022-10-12T09:31:21;17.80;99.90
871;DHT22;422;51.280;7.236;2022-10-12T09:33:53;18.00;99.90
871;DHT22;422;51.280;7.236;2022-10-12T09:36:27;18.40;99.90
871;DHT22;422;51.280;7.236;2022-10-12T09:38:58;18.70;99.90
871;DHT22;422;51.280;7.236;2022-10-12T09:41:30;18.70;99.90
871;DHT22;422;51.280;7.236;2022-10-12T09:44:00;18.60;99.90
871;DHT22;422;51.280;7.236;2022-10-12T09:46:36;19.00;99.90
871;DHT22;422;51.280;7.236;2022-10-12T09:49:05;19.10;99.90
871;DHT22;422;51.280;7.236;2022-10-12T09:51:32;19.10;99.90
871;DHT22;422;51.280;7.236;2022-10-12T09:54:03;18.70;99.90
871;DHT22;422;51.280;7.236;2022-10-12T09:56:36;18.50;99.90
871;DHT22;422;51.280;7.236;2022-10-12T09:59:15;18.30;99.90
871;DHT22;422;51.280;7.236;2022-10-12T10:01:56;18.30;99.90
871;DHT22;422;51.280;7.236;2022-10-12T10:04:24;18.50;99.90
871;DHT22;422;51.280;7.236;2022-10-12T10:06:59;19.00;99.90
871;DHT22;422;51.280;7.236;2022-10-12T10:09:41;19.50;99.90
871;DHT22;422;51.280;7.236;2022-10-12T10:12:22;19.60;99.90
871;DHT22;422;51.280;7.236;2022-10-12T10:14:52;19.50;99.90
871;DHT22;422;51.280;7.236;2022-10-12T10:17:34;19.60;99.90
871;DHT22;422;51.280;7.236;2022-10-12T10:20:05;19.10;99.90
871;DHT22;422;51.280;7.236;2022-10-12T10:22:33;18.90;99.90
871;DHT22;422;51.280;7.236;2022-10-12T10:25:02;19.10;99.90
871;DHT22;422;51.280;7.236;2022-10-12T10:27:34;19.10;99.90
871;DHT22;422;51.280;7.236;2022-10-12T10:30:20;18.30;99.90
871;DHT22;422;51.280;7.236;2022-10-12T10:33:07;17.40;99.90
871;DHT22;422;51.280;7.236;2022-10-12T10:35:34;17.40;99.90
871;DHT22;422;51.280;7.236;2022-10-12T10:38:02;17.80;99.90
871;DHT22;422;51.280;7.236;2022-10-12T10:40:33;18.00;99.90
871;DHT22;422;51.280;7.236;2022-10-12T10:43:15;18.30;99.90
871;DHT22;422;51.280;7.236;2022-10-12T10:45:51;18.70;99.90
871;DHT22;422;51.280;7.236;2022-10-12T10:48:22;18.20;99.90
871;DHT22;422;51.280;7.236;2022-10-12T10:50:55;17.90;99.90
871;DHT22;422;51.280;7.236;2022-10-12T10:53:47;17.90;99.90
871;DHT22;422;51.280;7.236;2022-10-12T10:56:24;18.10;99.90
871;DHT22;422;51.280;7.236;2022-10-12T10:59:19;18.70;99.90
871;DHT22;422;51.280;7.236;2022-10-12T11:01:52;19.20;99.90
871;DHT22;422;51.280;7.236;2022-10-12T11:04:28;19.30;99.90
871;DHT22;422;51.280;7.236;2022-10-12T11:07:02;19.50;99.90
871;DHT22;422;51.280;7.236;2022-10-12T11:09:38;19.80;99.90
871;DHT22;422;51.280;7.236;2022-10-12T11:12:13;20.20;99.90
871;DHT22;422;51.280;7.236;2022-10-12T11:14:44;20.40;99.90
871;DHT22;422;51.280;7.236;2022-10-12T11:17:16;20.40;99.90
871;DHT22;422;51.280;7.236;2022-10-12T11:19:51;20.10;99.90
871;DHT22;422;51.280;7.236;2022-10-12T11:22:29;19.90;99.90
871;DHT22;422;51.280;7.236;2022-10-12T11:25:04;20.10;99.90
871;DHT22;422;51.280;7.236;2022-10-12T11:27:37;19.90;99.90
871;DHT22;422;51.280;7.236;2022-10-12T11:30:12;20.10;99.90
871;DHT22;422;51.280;7.236;2022-10-12T11:32:44;20.10;99.90
871;DHT22;422;51.280;7.236;2022-10-12T11:35:19;20.00;99.90
871;DHT22;422;51.280;7.236;2022-10-12T11:37:58;19.80;99.90
871;DHT22;422;51.280;7.236;2022-10-12T11:40:32;19.50;99.90
871;DHT22;422;51.280;7.236;2022-10-12T11:43:06;18.90;99.90
871;DHT22;422;51.280;7.236;2022-10-12T11:45:43;18.90;99.90
871;DHT22;422;51.280;7.236;2022-10-12T11:48:19;19.30;99.90
871;DHT22;422;51.280;7.236;2022-10-12T11:50:51;19.60;99.90
871;DHT22;422;51.280;7.236;2022-10-12T11:53:24;19.70;99.90
871;DHT22;422;51.280;7.236;2022-10-12T11:56:00;19.40;99.90
871;DHT22;422;51.280;7.236;2022-10-12T11:58:35;19.40;99.90
871;DHT22;422;51.280;7.236;2022-10-12T12:01:25;19.50;99.90
871;DHT22;422;51.280;7.236;2022-10-12T12:04:12;19.90;99.90
871;DHT22;422;51.280;7.236;2022-10-12T12:07:04;19.90;99.90
871;DHT22;422;51.280;7.236;2022-10-12T12:09:35;20.30;99.90
871;DHT22;422;51.280;7.236;2022-10-12T12:12:25;19.90;99.90
871;DHT22;422;51.280;7.236;2022-10-12T12:15:08;19.40;99.90
871;DHT22;422;51.280;7.236;2022-10-12T12:18:06;19.50;99.90
871;DHT22;422;51.280;7.236;2022-10-12T12:21:04;19.60;99.90
871;DHT22;422;51.280;7.236;2022-10-12T12:23:37;19.40;99.90
871;DHT22;422;51.280;7.236;2022-10-12T12:26:16;19.10;99.90
871;DHT22;422;51.280;7.236;2022-10-12T12:28:45;18.90;99.90
871;DHT22;422;51.280;7.236;2022-10-12T12:31:23;18.70;99.90
871;DHT22;422;51.280;7.236;2022-10-12T12:34:02;18.60;99.90
871;DHT22;422;51.280;7.236;2022-10-12T12:36:33;18.70;99.90
871;DHT22;422;51.280;7.236;2022-10-12T12:39:01;18.80;99.90
871;DHT22;422;51.280;7.236;2022-10-12T12:41:47;19.00;99.90
871;DHT22;422;51.280;7.236;2022-10-12T12:44:36;18.70;99.90
871;DHT22;422;51.280;7.236;2022-10-12T12:47:19;18.00;99.90
871;DHT22;422;51.280;7.236;2022-10-12T12:49:49;17.60;99.90
871;DHT22;422;51.280;7.236;2022-10-12T12:52:21;17.30;99.90
871;DHT22;422;51.280;7.236;2022-10-12T12:55:20;17.10;99.90
871;DHT22;422;51.280;7.236;2022-10-12T12:58:28;17.00;99.90
871;DHT22;422;51.280;7.236;2022-10-12T13:01:12;17.30;99.90
871;DHT22;422;51.280;7.236;2022-10-12T13:04:03;17.50;99.90
871;DHT22;422;51.280;7.236;2022-10-12T13:07:11;17.40;99.90
871;DHT22;422;51.280;7.236;2022-10-12T13:09:54;18.00;99.90
871;DHT22;422;51.280;7.236;2022-10-12T13:12:33;18.30;99.90
871;DHT22;422;51.280;7.236;2022-10-12T13:15:16;18.40;99.90
871;DHT22;422;51.280;7.236;2022-10-12T13:20:47;18.30;99.90
871;DHT22;422;51.280;7.236;2022-10-12T13:23:20;18.10;99.90
871;DHT22;422;51.280;7.236;2022-10-12T13:25:51;18.00;99.90
871;DHT22;422;51.280;7.236;2022-10-12T13:28:21;17.80;99.90
871;DHT22;422;51.280;7.236;2022-10-12T13:30:57;17.70;99.90
871;DHT22;422;51.280;7.236;2022-10-12T13:33:31;17.70;99.90
871;DHT22;422;51.280;7.236;2022-10-12T13:36:04;17.80;99.90
871;DHT22;422;51.280;7.236;2022-10-12T13:38:33;17.90;99.90
871;DHT22;422;51.280;7.236;2022-10-12T13:41:07;17.70;99.90
871;DHT22;422;51.280;7.236;2022-10-12T13:43:41;17.60;99.90
871;DHT22;422;51.280;7.236;2022-10-12T13:46:12;17.50;99.90
871;DHT22;422;51.280;7.236;2022-10-12T13:48:39;17.40;99.90
871;DHT22;422;51.280;7.236;2022-10-12T13:51:22;17.40;99.90
871;DHT22;422;51.280;7.236;2022-10-12T13:53:53;17.40;99.90
871;DHT22;422;51.280;7.236;2022-10-12T13:56:22;17.30;99.90
871;DHT22;422;51.280;7.236;2022-10-12T13:58:55;17.30;99.90
871;DHT22;422;51.280;7.236;2022-10-12T14:01:23;17.10;99.90
871;DHT22;422;51.280;7.236;2022-10-12T14:03:50;17.20;99.90
871;DHT22;422;51.280;7.236;2022-10-12T14:06:30;17.30;99.90
871;DHT22;422;51.280;7.236;2022-10-12T14:09:00;17.10;99.90
871;DHT22;422;51.280;7.236;2022-10-12T14:11:32;17.00;99.90
871;DHT22;422;51.280;7.236;2022-10-12T14:14:01;17.00;99.90
871;DHT22;422;51.280;7.236;2022-10-12T14:16:29;17.10;99.90
871;DHT22;422;51.280;7.236;2022-10-12T14:19:16;17.10;99.90
871;DHT22;422;51.280;7.236;2022-10-12T14:21:47;17.30;99.90
871;DHT22;422;51.280;7.236;2022-10-12T14:24:16;17.40;99.90
871;DHT22;422;51.280;7.236;2022-10-12T14:26:51;17.20;99.90
871;DHT22;422;51.280;7.236;2022-10-12T14:29:29;17.30;99.90
871;DHT22;422;51.280;7.236;2022-10-12T14:31:59;17.20;99.90
871;DHT22;422;51.280;7.236;2022-10-12T14:34:39;17.20;99.90
871;DHT22;422;51.280;7.236;2022-10-12T14:37:25;16.90;99.90
871;DHT22;422;51.280;7.236;2022-10-12T14:39:53;16.60;99.90
871;DHT22;422;51.280;7.236;2022-10-12T14:42:30;16.50;99.90
871;DHT22;422;51.280;7.236;2022-10-12T14:45:02;16.50;99.90
871;DHT22;422;51.280;7.236;2022-10-12T14:47:31;16.60;99.90
871;DHT22;422;51.280;7.236;2022-10-12T14:50:00;16.50;99.90
871;DHT22;422;51.280;7.236;2022-10-12T14:52:37;16.50;99.90
871;DHT22;422;51.280;7.236;2022-10-12T14:55:08;16.50;99.90
871;DHT22;422;51.280;7.236;2022-10-12T14:57:39;16.60;99.90
871;DHT22;422;51.280;7.236;2022-10-12T15:00:07;16.60;99.90
871;DHT22;422;51.280;7.236;2022-10-12T15:02:35;16.70;99.90
871;DHT22;422;51.280;7.236;2022-10-12T15:05:08;16.60;99.90
871;DHT22;422;51.280;7.236;2022-10-12T15:07:37;16.60;99.90
871;DHT22;422;51.280;7.236;2022-10-12T15:10:06;16.50;99.90
871;DHT22;422;51.280;7.236;2022-10-12T15:12:33;16.50;99.90
871;DHT22;422;51.280;7.236;2022-10-12T15:15:17;16.50;99.90
871;DHT22;422;51.280;7.236;2022-10-12T15:17:46;16.50;99.90
871;DHT22;422;51.280;7.236;2022-10-12T15:20:13;16.30;99.90
871;DHT22;422;51.280;7.236;2022-10-12T15:22:42;16.30;99.90
871;DHT22;422;51.280;7.236;2022-10-12T15:25:17;16.20;99.90
871;DHT22;422;51.280;7.236;2022-10-12T15:27:46;16.10;99.90
871;DHT22;422;51.280;7.236;2022-10-12T15:30:17;16.00;99.90
871;DHT22;422;51.280;7.236;2022-10-12T15:32:44;15.90;99.90
871;DHT22;422;51.280;7.236;2022-10-12T15:35:18;15.80;99.90
871;DHT22;422;51.280;7.236;2022-10-12T15:37:48;15.70;99.90
871;DHT22;422;51.280;7.236;2022-10-12T15:40:20;15.60;99.90
871;DHT22;422;51.280;7.236;2022-10-12T15:42:47;15.50;99.90
871;DHT22;422;51.280;7.236;2022-10-12T15:45:17;15.30;99.90
871;DHT22;422;51.280;7.236;2022-10-12T15:47:48;15.20;99.90
871;DHT22;422;51.280;7.236;2022-10-12T15:50:17;15.10;99.90
871;DHT22;422;51.280;7.236;2022-10-12T15:52:49;15.20;99.90
871;DHT22;422;51.280;7.236;2022-10-12T15:55:21;15.10;99.90
871;DHT22;422;51.280;7.236;2022-10-12T15:57:49;15.00;99.90
871;DHT22;422;51.280;7.236;2022-10-12T16:00:18;15.00;99.90
871;DHT22;422;51.280;7.236;2022-10-12T16:02:46;14.90;99.90
871;DHT22;422;51.280;7.236;2022-10-12T16:05:17;14.80;99.90
871;DHT22;422;51.280;7.236;2022-10-12T16:07:44;14.80;99.90
871;DHT22;422;51.280;7.236;2022-10-12T16:10:15;14.80;99.90
871;DHT22;422;51.280;7.236;2022-10-12T16:12:44;14.60;99.90
871;DHT22;422;51.280;7.236;2022-10-12T16:15:20;14.40;99.90
871;DHT22;422;51.280;7.236;2022-10-12T16:17:47;14.30;99.90
871;DHT22;422;51.280;7.236;2022-10-12T16:20:15;14.20;99.90
871;DHT22;422;51.280;7.236;2022-10-12T16:22:47;14.10;99.90
871;DHT22;422;51.280;7.236;2022-10-12T16:25:24;14.00;99.90
871;DHT22;422;51.280;7.236;2022-10-12T16:27:55;14.00;99.90
871;DHT22;422;51.280;7.236;2022-10-12T16:30:28;14.00;99.90
871;DHT22;422;51.280;7.236;2022-10-12T16:32:57;13.90;99.90
871;DHT22;422;51.280;7.236;2022-10-12T16:35:25;13.80;99.90
871;DHT22;422;51.280;7.236;2022-10-12T16:37:52;13.70;99.90
871;DHT22;422;51.280;7.236;2022-10-12T16:40:23;13.70;99.90
871;DHT22;422;51.280;7.236;2022-10-12T16:42:51;13.60;99.90
871;DHT22;422;51.280;7.236;2022-10-12T16:45:19;13.60;99.90
871;DHT22;422;51.280;7.236;2022-10-12T16:47:47;13.60;99.90
871;DHT22;422;51.280;7.236;2022-10-12T16:50:15;13.50;99.90
871;DHT22;422;51.280;7.236;2022-10-12T16:52:42;13.50;99.90
871;DHT22;422;51.280;7.236;2022-10-12T16:55:09;13.40;99.90
871;DHT22;422;51.280;7.236;2022-10-12T16:57:39;13.30;99.90
871;DHT22;422;51.280;7.236;2022-10-12T17:00:12;13.40;99.90
871;DHT22;422;51.280;7.236;2022-10-12T17:02:40;13.30;99.90
871;DHT22;422;51.280;7.236;2022-10-12T17:05:08;13.20;99.90
871;DHT22;422;51.280;7.236;2022-10-12T17:07:35;13.10;99.90
871;DHT22;422;51.280;7.236;2022-10-12T17:10:03;13.10;99.90
871;DHT22;422;51.280;7.236;2022-10-12T17:12:31;13.10;99.90
871;DHT22;422;51.280;7.236;2022-10-12T17:15:01;13.10;99.90
871;DHT22;422;51.280;7.236;2022-10-12T17:17:29;13.00;99.90
871;DHT22;422;51.280;7.236;2022-10-12T17:19:57;12.90;1.00
871;DHT22;422;51.280;7.236;2022-10-12T17:22:24;12.80;99.90
871;DHT22;422;51.280;7.236;2022-10-12T17:24:51;12.70;1.00
871;DHT22;422;51.280;7.236;2022-10-12T17:27:19;12.60;1.00
871;DHT22;422;51.280;7.236;2022-10-12T17:29:46;12.50;1.00
871;DHT22;422;51.280;7.236;2022-10-12T17:32:17;12.50;1.00